Time;durP1;ratioP1;P1;durP2;ratioP2;P2;SDS_P1;SDS_P2;PMS_P1;PMS_P2;Temp;Humidity;BMP_temperature;BMP_pressure;BME280_temperature;BME280_humidity;BME280_pressure;Samples;Min_cycle;Max_cycle;Signal;HPM_P1;HPM_P2
2022/12/19 00:01:42;;;;;;;;;;;17.70;99.90;;;;;;5112594;28;19969;-67
2022/12/19 00:04:11;;;;;;;;;;;17.70;99.90;;;;;;5112582;28;19915;-62
2022/12/19 00:06:38;;;;;;;;;;;17.80;99.90;;;;;;5094184;28;19915;-60
2022/12/19 00:09:05;;;;;;;;;;;17.90;99.90;;;;;;5112351;28;19908;-63
2022/12/19 00:11:32;;;;;;;;;;;17.90;99.90;;;;;;5112634;28;19954;-64
2022/12/19 00:13:59;;;;;;;;;;;17.80;99.90;;;;;;5109195;28;19920;-68
2022/12/19 00:16:27;;;;;;;;;;;17.40;99.90;;;;;;5112672;28;19908;-69
2022/12/19 00:18:55;;;;;;;;;;;17.30;99.90;;;;;;5112299;28;20282;-67
2022/12/19 00:21:23;;;;;;;;;;;17.30;99.90;;;;;;5113420;28;19960;-69
2022/12/19 00:23:50;;;;;;;;;;;17.40;99.90;;;;;;5116333;28;19919;-65
2022/12/19 00:26:21;;;;;;;;;;;17.40;99.90;;;;;;5116195;28;20278;-70
2022/12/19 00:28:50;;;;;;;;;;;17.40;99.90;;;;;;5075893;28;19912;-66
2022/12/19 00:31:17;;;;;;;;;;;17.40;99.90;;;;;;5097681;28;19911;-69
2022/12/19 00:33:44;;;;;;;;;;;17.50;99.90;;;;;;5115929;28;19908;-70
2022/12/19 00:36:12;;;;;;;;;;;17.60;99.90;;;;;;5115649;28;19947;-69
2022/12/19 00:38:39;;;;;;;;;;;17.80;99.90;;;;;;5115529;28;19920;-70
2022/12/19 00:41:10;;;;;;;;;;;17.90;99.90;;;;;;5115530;28;19912;-69
2022/12/19 00:43:37;;;;;;;;;;;17.70;99.90;;;;;;5111192;28;19957;-69
2022/12/19 00:46:04;;;;;;;;;;;17.60;99.90;;;;;;5114441;28;19912;-70
2022/12/19 00:48:31;;;;;;;;;;;17.50;99.90;;;;;;5115598;28;20231;-69
2022/12/19 00:50:59;;;;;;;;;;;17.60;99.90;;;;;;5115182;28;20282;-65
2022/12/19 00:53:26;;;;;;;;;;;17.70;99.90;;;;;;5110288;28;19960;-69
2022/12/19 00:55:52;;;;;;;;;;;17.80;99.90;;;;;;5111027;28;20370;-70
2022/12/19 00:58:19;;;;;;;;;;;17.90;99.90;;;;;;5115203;28;19931;-69
2022/12/19 01:00:46;;;;;;;;;;;18.10;99.90;;;;;;5115285;28;19908;-69
2022/12/19 01:03:12;;;;;;;;;;;18.00;99.90;;;;;;5115441;28;19971;-70
2022/12/19 01:05:39;;;;;;;;;;;18.00;99.90;;;;;;5115005;28;19912;-65
2022/12/19 01:08:06;;;;;;;;;;;18.00;99.90;;;;;;5097214;28;19959;-68
2022/12/19 01:10:32;;;;;;;;;;;17.90;99.90;;;;;;5113196;28;19918;-69
2022/12/19 01:12:59;;;;;;;;;;;17.90;99.90;;;;;;5113684;28;20342;-70
2022/12/19 01:15:26;;;;;;;;;;;18.10;99.90;;;;;;5115310;28;19965;-70
2022/12/19 01:17:52;;;;;;;;;;;18.30;99.90;;;;;;5114955;28;20417;-67
2022/12/19 01:20:20;;;;;;;;;;;18.00;99.90;;;;;;5115288;28;19911;-66
2022/12/19 01:22:47;;;;;;;;;;;17.80;99.90;;;;;;5114621;28;20422;-63
2022/12/19 01:25:14;;;;;;;;;;;17.60;99.90;;;;;;5113571;28;19911;-62
2022/12/19 01:27:40;;;;;;;;;;;17.50;99.90;;;;;;5115043;28;19908;-68
2022/12/19 01:30:07;;;;;;;;;;;17.50;99.90;;;;;;5114765;28;19939;-65
2022/12/19 01:32:35;;;;;;;;;;;17.40;99.90;;;;;;5114875;28;19908;-70
2022/12/19 01:35:02;;;;;;;;;;;17.60;99.90;;;;;;5114623;28;19961;-66
2022/12/19 01:37:29;;;;;;;;;;;17.80;99.90;;;;;;5114512;28;19965;-68
2022/12/19 01:39:55;;;;;;;;;;;18.00;99.90;;;;;;5112716;28;19923;-70
2022/12/19 01:42:22;;;;;;;;;;;18.20;99.90;;;;;;5114512;28;20362;-68
2022/12/19 01:45:04;;;;;;;;;;;18.50;99.90;;;;;;5114442;28;19940;-70
2022/12/19 01:47:32;;;;;;;;;;;18.50;99.90;;;;;;5096300;28;19947;-70
2022/12/19 01:50:00;;;;;;;;;;;18.70;99.90;;;;;;5114436;28;20346;-65
2022/12/19 01:52:27;;;;;;;;;;;18.70;99.90;;;;;;5114333;28;19907;-69
2022/12/19 01:54:54;;;;;;;;;;;18.60;99.90;;;;;;5112817;28;19918;-71
2022/12/19 01:57:20;;;;;;;;;;;18.80;99.90;;;;;;5114145;28;19920;-66
2022/12/19 01:59:55;;;;;;;;;;;18.80;99.90;;;;;;5114204;28;19908;-68
2022/12/19 02:02:28;;;;;;;;;;;18.70;99.90;;;;;;5114687;28;19908;-71
2022/12/19 02:04:55;;;;;;;;;;;18.40;99.90;;;;;;5114155;28;20012;-70
2022/12/19 02:07:23;;;;;;;;;;;18.30;99.90;;;;;;5114055;28;19908;-70
2022/12/19 02:09:53;;;;;;;;;;;18.30;99.90;;;;;;5112223;28;19919;-67
2022/12/19 02:12:21;;;;;;;;;;;18.10;99.90;;;;;;5114192;28;19990;-69
2022/12/19 02:14:47;;;;;;;;;;;17.90;99.90;;;;;;5113708;28;19912;-66
2022/12/19 02:17:32;;;;;;;;;;;17.70;99.90;;;;;;5114080;28;19907;-71
2022/12/19 02:20:11;;;;;;;;;;;17.70;99.90;;;;;;5114088;28;19951;-69
2022/12/19 02:22:41;;;;;;;;;;;17.80;99.90;;;;;;5114061;28;19908;-69
2022/12/19 02:25:21;;;;;;;;;;;17.90;99.90;;;;;;5111713;28;19919;-67
2022/12/19 02:27:48;;;;;;;;;;;18.10;99.90;;;;;;5113953;28;19907;-70
2022/12/19 02:30:17;;;;;;;;;;;18.10;99.90;;;;;;5114140;28;20285;-66
2022/12/19 02:32:43;;;;;;;;;;;18.30;99.90;;;;;;5114118;28;19977;-69
2022/12/19 02:35:23;;;;;;;;;;;18.50;99.90;;;;;;5113774;28;19908;-70
2022/12/19 02:37:54;;;;;;;;;;;18.60;99.90;;;;;;5113960;28;20028;-68
2022/12/19 02:40:25;;;;;;;;;;;18.70;99.90;;;;;;5112625;28;19918;-65
2022/12/19 02:42:56;;;;;;;;;;;18.80;99.90;;;;;;5114217;28;20265;-70
2022/12/19 02:45:25;;;;;;;;;;;19.10;99.90;;;;;;5117443;28;20011;-63
2022/12/19 02:47:52;;;;;;;;;;;19.30;99.90;;;;;;5114705;28;19915;-62
2022/12/19 02:50:18;;;;;;;;;;;19.30;99.90;;;;;;5113917;28;19908;-63
2022/12/19 02:52:46;;;;;;;;;;;19.20;99.90;;;;;;5113945;28;19914;-64
2022/12/19 02:55:15;;;;;;;;;;;19.20;99.90;;;;;;5111587;28;19912;-62
2022/12/19 02:58:00;;;;;;;;;;;19.10;99.90;;;;;;5113670;28;19978;-61
2022/12/19 03:00:27;;;;;;;;;;;19.00;99.90;;;;;;5113509;28;19999;-61
2022/12/19 03:02:57;;;;;;;;;;;19.10;99.90;;;;;;5113370;28;19912;-62
2022/12/19 03:05:31;;;;;;;;;;;19.50;99.90;;;;;;5113142;28;19967;-62
2022/12/19 03:08:05;;;;;;;;;;;19.60;99.90;;;;;;5111528;28;19935;-62
2022/12/19 03:10:43;;;;;;;;;;;19.40;99.90;;;;;;5112022;28;19911;-64
2022/12/19 03:13:29;;;;;;;;;;;19.50;99.90;;;;;;5113003;28;19908;-62
2022/12/19 03:15:56;;;;;;;;;;;19.70;99.90;;;;;;5113062;28;19918;-62
2022/12/19 03:18:23;;;;;;;;;;;20.00;99.90;;;;;;5113046;28;19916;-70
2022/12/19 03:20:59;;;;;;;;;;;20.20;99.90;;;;;;5112925;28;19912;-64
2022/12/19 03:23:26;;;;;;;;;;;19.80;99.90;;;;;;5111885;28;20384;-62
2022/12/19 03:25:55;;;;;;;;;;;19.60;99.90;;;;;;5113092;28;19919;-64
2022/12/19 03:28:35;;;;;;;;;;;19.70;99.90;;;;;;5113232;28;20068;-63
2022/12/19 03:31:03;;;;;;;;;;;19.60;99.90;;;;;;5112882;28;19915;-64
2022/12/19 03:33:31;;;;;;;;;;;19.70;99.90;;;;;;5113136;28;19912;-62
2022/12/19 03:36:00;;;;;;;;;;;19.90;99.90;;;;;;5112900;28;20389;-65
2022/12/19 03:38:27;;;;;;;;;;;20.00;99.90;;;;;;5111197;28;19949;-62
2022/12/19 03:40:55;;;;;;;;;;;19.80;99.90;;;;;;5111891;28;20002;-62
2022/12/19 03:43:23;;;;;;;;;;;19.60;99.90;;;;;;5113009;28;19930;-63
2022/12/19 03:45:53;;;;;;;;;;;19.10;99.90;;;;;;5112907;28;20271;-62
2022/12/19 03:48:38;;;;;;;;;;;18.70;99.90;;;;;;5112944;28;19911;-62
2022/12/19 03:51:04;;;;;;;;;;;18.80;99.90;;;;;;5112530;28;20335;-62
2022/12/19 03:53:49;;;;;;;;;;;18.70;99.90;;;;;;5098553;28;19935;-63
2022/12/19 03:56:37;;;;;;;;;;;18.90;99.90;;;;;;5093442;28;19908;-62
2022/12/19 03:59:08;;;;;;;;;;;19.10;99.90;;;;;;5084725;28;20007;-63
2022/12/19 04:01:35;;;;;;;;;;;19.30;99.90;;;;;;5095170;28;19919;-63
2022/12/19 04:04:04;;;;;;;;;;;19.50;99.90;;;;;;5096266;28;20303;-62
2022/12/19 04:06:32;;;;;;;;;;;19.20;99.90;;;;;;5096090;28;19958;-64
2022/12/19 04:08:59;;;;;;;;;;;19.20;99.90;;;;;;5096125;28;19916;-66
2022/12/19 04:11:27;;;;;;;;;;;19.00;99.90;;;;;;5096077;28;19920;-65
2022/12/19 04:13:59;;;;;;;;;;;19.20;99.90;;;;;;5096210;28;20415;-63
2022/12/19 04:16:32;;;;;;;;;;;19.20;99.90;;;;;;5094423;28;20434;-69
2022/12/19 04:19:04;;;;;;;;;;;19.40;99.90;;;;;;5095877;28;19927;-64
2022/12/19 04:21:33;;;;;;;;;;;19.40;99.90;;;;;;5094129;28;20366;-62
2022/12/19 04:24:05;;;;;;;;;;;19.60;99.90;;;;;;5096327;28;19927;-63
2022/12/19 04:26:34;;;;;;;;;;;19.50;99.90;;;;;;5095777;28;20393;-67
2022/12/19 04:29:02;;;;;;;;;;;19.50;99.90;;;;;;5095462;28;19916;-67
2022/12/19 04:31:28;;;;;;;;;;;19.60;99.90;;;;;;5093109;28;20014;-67
2022/12/19 04:33:55;;;;;;;;;;;19.70;99.90;;;;;;5095847;28;19916;-69
2022/12/19 04:36:22;;;;;;;;;;;19.70;99.90;;;;;;5095457;28;19950;-69
2022/12/19 04:38:49;;;;;;;;;;;19.40;99.90;;;;;;5095148;28;19916;-68
2022/12/19 04:41:15;;;;;;;;;;;19.50;99.90;;;;;;5095657;28;19908;-67
2022/12/19 04:43:42;;;;;;;;;;;19.50;99.90;;;;;;5095550;28;19909;-69
2022/12/19 04:46:09;;;;;;;;;;;19.70;99.90;;;;;;5094324;28;19938;-70
2022/12/19 04:48:36;;;;;;;;;;;19.50;99.90;;;;;;5095440;28;19908;-71
2022/12/19 04:51:03;;;;;;;;;;;19.40;99.90;;;;;;5094987;28;19951;-70
2022/12/19 04:53:30;;;;;;;;;;;19.50;99.90;;;;;;5095428;28;19912;-67
2022/12/19 04:56:04;;;;;;;;;;;19.50;99.90;;;;;;5095346;28;20287;-67
2022/12/19 04:58:31;;;;;;;;;;;19.60;99.90;;;;;;5095237;28;19924;-69
2022/12/19 05:01:05;;;;;;;;;;;19.70;99.90;;;;;;5094179;28;20359;-68
2022/12/19 05:03:32;;;;;;;;;;;19.90;99.90;;;;;;5095205;28;19912;-67
2022/12/19 05:06:03;;;;;;;;;;;20.20;99.90;;;;;;5095047;28;19908;-69
2022/12/19 05:08:30;;;;;;;;;;;20.10;99.90;;;;;;5094535;28;19998;-70
2022/12/19 05:11:00;;;;;;;;;;;20.30;99.90;;;;;;5094967;28;19912;-70
2022/12/19 05:13:27;;;;;;;;;;;20.00;99.90;;;;;;5095036;28;19915;-70
2022/12/19 05:15:58;;;;;;;;;;;19.90;99.90;;;;;;5093879;28;20105;-68
2022/12/19 05:18:24;;;;;;;;;;;19.70;99.90;;;;;;5093545;28;20367;-70
2022/12/19 05:20:51;;;;;;;;;;;19.50;99.90;;;;;;5094743;28;19908;-69
2022/12/19 05:23:18;;;;;;;;;;;19.70;99.90;;;;;;5095026;28;19908;-69
2022/12/19 05:25:45;;;;;;;;;;;19.50;99.90;;;;;;5094801;28;19951;-69
2022/12/19 05:28:12;;;;;;;;;;;19.70;99.90;;;;;;5094622;28;20340;-69
2022/12/19 05:30:39;;;;;;;;;;;20.10;99.90;;;;;;5093647;28;19908;-71
2022/12/19 05:33:06;;;;;;;;;;;20.00;99.90;;;;;;5093786;28;19923;-69
2022/12/19 05:35:33;;;;;;;;;;;19.60;99.90;;;;;;5094334;28;19909;-70
2022/12/19 05:38:00;;;;;;;;;;;19.30;99.90;;;;;;5094439;28;19926;-65
2022/12/19 05:40:26;;;;;;;;;;;19.30;99.90;;;;;;5094633;28;19916;-69
2022/12/19 05:42:53;;;;;;;;;;;19.10;99.90;;;;;;5094225;28;19921;-69
2022/12/19 05:45:20;;;;;;;;;;;19.20;99.90;;;;;;5092281;28;19908;-67
2022/12/19 05:47:47;;;;;;;;;;;19.30;99.90;;;;;;5093574;28;19998;-70
2022/12/19 05:50:14;;;;;;;;;;;19.60;99.90;;;;;;5093969;28;19915;-69
2022/12/19 05:52:41;;;;;;;;;;;19.40;99.90;;;;;;5085185;28;19928;-70
2022/12/19 05:55:08;;;;;;;;;;;19.40;99.90;;;;;;5085476;28;19919;-69
2022/12/19 05:57:35;;;;;;;;;;;19.20;99.90;;;;;;5098755;28;19924;-68
2022/12/19 06:00:03;;;;;;;;;;;18.90;99.90;;;;;;5076543;28;19923;-68
2022/12/19 06:02:33;;;;;;;;;;;18.60;99.90;;;;;;5065069;28;19927;-71
2022/12/19 06:04:59;;;;;;;;;;;18.30;99.90;;;;;;5064261;28;20302;-71
2022/12/19 06:07:26;;;;;;;;;;;18.30;99.90;;;;;;5065152;28;19936;-70
2022/12/19 06:09:53;;;;;;;;;;;18.20;99.90;;;;;;5064841;28;19957;-70
2022/12/19 06:12:19;;;;;;;;;;;18.30;99.90;;;;;;5065058;28;19913;-70
2022/12/19 06:14:46;;;;;;;;;;;18.30;99.90;;;;;;5091392;28;20505;-71
2022/12/19 06:17:13;;;;;;;;;;;18.40;99.90;;;;;;5103684;28;20567;-67
2022/12/19 06:19:39;;;;;;;;;;;18.40;99.90;;;;;;5104263;28;19916;-64
2022/12/19 06:22:06;;;;;;;;;;;18.50;99.90;;;;;;5105182;28;19911;-68
2022/12/19 06:24:33;;;;;;;;;;;18.40;99.90;;;;;;5105217;28;19911;-70
2022/12/19 06:26:59;;;;;;;;;;;18.50;99.90;;;;;;5107401;28;20015;-70
2022/12/19 06:29:26;;;;;;;;;;;18.50;99.90;;;;;;5110368;28;19912;-70
2022/12/19 06:31:53;;;;;;;;;;;18.60;99.90;;;;;;5111388;28;20423;-64
2022/12/19 06:34:19;;;;;;;;;;;18.30;99.90;;;;;;5111402;28;19954;-69
2022/12/19 06:36:46;;;;;;;;;;;18.30;99.90;;;;;;5111382;28;19907;-69
2022/12/19 06:39:14;;;;;;;;;;;18.40;99.90;;;;;;5111411;28;19920;-66
2022/12/19 06:44:26;;;;;;;;;;;18.00;99.90;;;;;;5106301;28;19934;-64
2022/12/19 06:46:53;;;;;;;;;;;18.00;99.90;;;;;;5070911;28;19915;-70
2022/12/19 06:49:20;;;;;;;;;;;18.10;99.90;;;;;;5070749;28;19919;-69
2022/12/19 06:51:46;;;;;;;;;;;18.20;99.90;;;;;;5070952;28;19912;-69
2022/12/19 06:54:13;;;;;;;;;;;17.90;99.90;;;;;;5070378;28;19948;-71
2022/12/19 06:56:41;;;;;;;;;;;17.80;99.90;;;;;;5070561;28;20052;-72
2022/12/19 06:59:10;;;;;;;;;;;17.90;99.90;;;;;;5084745;28;20006;-71
2022/12/19 07:01:50;;;;;;;;;;;17.90;99.90;;;;;;5091266;28;19912;-68
2022/12/19 07:04:20;;;;;;;;;;;17.90;99.90;;;;;;5091019;28;19912;-71
2022/12/19 07:06:47;;;;;;;;;;;18.00;99.90;;;;;;5090802;28;19908;-71
2022/12/19 07:09:14;;;;;;;;;;;18.10;99.90;;;;;;5089886;28;20019;-67
2022/12/19 07:11:40;;;;;;;;;;;18.20;99.90;;;;;;5076336;28;19978;-71
2022/12/19 07:14:07;;;;;;;;;;;18.20;99.90;;;;;;5070852;28;19912;-70
2022/12/19 07:16:34;;;;;;;;;;;18.10;99.90;;;;;;5070818;28;19909;-69
2022/12/19 07:19:00;;;;;;;;;;;18.10;99.90;;;;;;5070308;28;19916;-64
2022/12/19 07:21:28;;;;;;;;;;;18.00;99.90;;;;;;5069380;28;20066;-68
2022/12/19 07:23:55;;;;;;;;;;;18.10;99.90;;;;;;5069655;28;19988;-64
2022/12/19 07:26:21;;;;;;;;;;;18.00;99.90;;;;;;5089553;28;19912;-61
2022/12/19 07:28:48;;;;;;;;;;;18.10;99.90;;;;;;5090567;28;19908;-66
2022/12/19 07:31:15;;;;;;;;;;;18.10;99.90;;;;;;5093588;28;19915;-63
2022/12/19 07:33:42;;;;;;;;;;;18.20;99.90;;;;;;5094613;28;20362;-64
2022/12/19 07:36:08;;;;;;;;;;;18.20;99.90;;;;;;5094903;28;19908;-63
2022/12/19 07:38:35;;;;;;;;;;;18.30;99.90;;;;;;5093938;28;20006;-70
2022/12/19 07:41:02;;;;;;;;;;;18.30;99.90;;;;;;5092020;28;19955;-70
2022/12/19 07:43:29;;;;;;;;;;;18.30;99.90;;;;;;5094714;28;19998;-65
2022/12/19 07:45:56;;;;;;;;;;;18.20;99.90;;;;;;5094661;28;19915;-62
2022/12/19 07:48:23;;;;;;;;;;;18.10;99.90;;;;;;5094496;28;19908;-63
2022/12/19 07:50:50;;;;;;;;;;;18.10;99.90;;;;;;5094282;28;19943;-62
2022/12/19 07:53:16;;;;;;;;;;;17.90;99.90;;;;;;5093962;28;19969;-63
2022/12/19 07:55:43;;;;;;;;;;;17.80;99.90;;;;;;5093646;28;19947;-63
2022/12/19 07:58:10;;;;;;;;;;;17.90;99.90;;;;;;5112432;28;19923;-64
2022/12/19 08:00:37;;;;;;;;;;;17.90;99.90;;;;;;5052972;27;19928;-63
2022/12/19 08:03:03;;;;;;;;;;;17.80;99.90;;;;;;5053622;28;19995;-68
2022/12/19 08:05:30;;;;;;;;;;;17.80;99.90;;;;;;5053863;28;19909;-66
2022/12/19 08:07:57;;;;;;;;;;;17.80;99.90;;;;;;5053278;28;20433;-66
2022/12/19 08:10:24;;;;;;;;;;;17.80;99.90;;;;;;5063443;28;20404;-63
2022/12/19 08:12:51;;;;;;;;;;;17.80;99.90;;;;;;5075513;28;20305;-63
2022/12/19 08:15:17;;;;;;;;;;;17.70;99.90;;;;;;5075592;28;20370;-63
2022/12/19 08:17:44;;;;;;;;;;;17.60;99.90;;;;;;5075632;28;20015;-63
2022/12/19 08:20:12;;;;;;;;;;;17.50;99.90;;;;;;5074926;28;19921;-62
2022/12/19 08:22:38;;;;;;;;;;;17.50;99.90;;;;;;5075157;28;20294;-63
2022/12/19 08:25:06;;;;;;;;;;;17.50;99.90;;;;;;5074025;28;20378;-64
2022/12/19 08:27:33;;;;;;;;;;;17.50;99.90;;;;;;5075317;28;19951;-63
2022/12/19 08:30:00;;;;;;;;;;;17.40;99.90;;;;;;5074834;28;20003;-64
2022/12/19 08:32:27;;;;;;;;;;;17.40;99.90;;;;;;5075252;28;20286;-63
2022/12/19 08:34:55;;;;;;;;;;;17.40;99.90;;;;;;5075184;28;19909;-63
2022/12/19 08:37:22;;;;;;;;;;;17.50;99.90;;;;;;5074434;28;19919;-63
2022/12/19 08:39:48;;;;;;;;;;;17.40;99.90;;;;;;5072961;28;19924;-72
2022/12/19 08:42:15;;;;;;;;;;;17.40;99.90;;;;;;5074168;28;19916;-68
2022/12/19 08:44:42;;;;;;;;;;;17.40;99.90;;;;;;5069487;28;19951;-66
2022/12/19 08:47:09;;;;;;;;;;;17.40;99.90;;;;;;5074749;28;19995;-66
2022/12/19 08:49:35;;;;;;;;;;;17.40;99.90;;;;;;5074389;28;20268;-68
2022/12/19 08:52:02;;;;;;;;;;;17.40;99.90;;;;;;5074385;28;19908;-70
2022/12/19 08:54:29;;;;;;;;;;;17.30;99.90;;;;;;5074693;28;19908;-64
2022/12/19 08:56:56;;;;;;;;;;;17.30;99.90;;;;;;5074357;28;19923;-65
2022/12/19 08:59:22;;;;;;;;;;;17.20;99.90;;;;;;5071972;28;19932;-63
2022/12/19 09:01:49;;;;;;;;;;;17.20;99.90;;;;;;5074805;28;20282;-64
2022/12/19 09:04:16;;;;;;;;;;;17.20;99.90;;;;;;5074459;28;19909;-64
2022/12/19 09:06:43;;;;;;;;;;;17.20;99.90;;;;;;5070292;28;19912;-66
2022/12/19 09:09:10;;;;;;;;;;;17.10;99.90;;;;;;5073719;28;19947;-62
2022/12/19 09:11:36;;;;;;;;;;;17.10;99.90;;;;;;5074532;28;19912;-65
2022/12/19 09:14:03;;;;;;;;;;;17.10;99.90;;;;;;5074465;28;20282;-67
2022/12/19 09:16:30;;;;;;;;;;;17.10;99.90;;;;;;5074363;28;19908;-66
2022/12/19 09:19:00;;;;;;;;;;;17.10;99.90;;;;;;5073263;28;19920;-67
2022/12/19 09:21:30;;;;;;;;;;;17.10;99.90;;;;;;5070132;28;19920;-64
2022/12/19 09:23:58;;;;;;;;;;;17.00;99.90;;;;;;5072210;28;20354;-66
2022/12/19 09:26:25;;;;;;;;;;;16.90;99.90;;;;;;5071957;28;19959;-64
2022/12/19 09:28:52;;;;;;;;;;;16.90;99.90;;;;;;5071652;28;19908;-63
2022/12/19 09:31:20;;;;;;;;;;;16.90;99.90;;;;;;5071329;28;19916;-63
2022/12/19 09:33:47;;;;;;;;;;;16.80;99.90;;;;;;5071514;28;19908;-64
2022/12/19 09:36:15;;;;;;;;;;;16.80;99.90;;;;;;5070374;28;19912;-62
2022/12/19 09:38:42;;;;;;;;;;;16.80;99.90;;;;;;5071939;28;19920;-69
2022/12/19 09:41:08;;;;;;;;;;;16.80;99.90;;;;;;5076250;28;19924;-65
2022/12/19 09:43:56;;;;;;;;;;;16.80;99.90;;;;;;5071632;28;19908;-68
2022/12/19 09:46:39;;;;;;;;;;;16.80;99.90;;;;;;5071871;28;19915;-66
2022/12/19 09:49:11;;;;;;;;;;;16.80;99.90;;;;;;5069913;28;19919;-62
2022/12/19 09:51:43;;;;;;;;;;;16.80;99.90;;;;;;5055563;28;19917;-66
2022/12/19 09:54:14;;;;;;;;;;;16.70;99.90;;;;;;5071710;28;19916;-69
2022/12/19 09:56:41;;;;;;;;;;;16.70;99.90;;;;;;5071714;28;19920;-64
2022/12/19 09:59:28;;;;;;;;;;;16.70;99.90;;;;;;5068203;28;19924;-70
2022/12/19 10:02:21;;;;;;;;;;;16.80;99.90;;;;;;5064138;28;20011;-67
2022/12/19 10:05:17;;;;;;;;;;;16.70;99.90;;;;;;5062753;28;19920;-70
2022/12/19 10:07:45;;;;;;;;;;;16.60;99.90;;;;;;5051358;28;19919;-68
2022/12/19 10:10:23;;;;;;;;;;;16.70;99.90;;;;;;5064351;28;19959;-66
2022/12/19 10:13:02;;;;;;;;;;;16.60;99.90;;;;;;5064381;28;19916;-68
2022/12/19 10:15:49;;;;;;;;;;;16.60;99.90;;;;;;5064503;28;19992;-71
2022/12/19 10:18:29;;;;;;;;;;;16.70;99.90;;;;;;5032624;28;19920;-69
2022/12/19 10:21:02;;;;;;;;;;;16.70;99.90;;;;;;5062826;28;19923;-66
2022/12/19 10:23:44;;;;;;;;;;;16.70;99.90;;;;;;5062972;28;20429;-69
2022/12/19 10:26:19;;;;;;;;;;;16.70;99.90;;;;;;5064279;28;19913;-70
2022/12/19 10:29:04;;;;;;;;;;;16.70;99.90;;;;;;5064222;28;19913;-68
2022/12/19 10:31:38;;;;;;;;;;;16.80;99.90;;;;;;5064524;28;19919;-70
2022/12/19 10:34:21;;;;;;;;;;;16.70;99.90;;;;;;5063010;28;20553;-67
2022/12/19 10:36:57;;;;;;;;;;;16.70;99.90;;;;;;5063987;28;19912;-67
2022/12/19 10:39:26;;;;;;;;;;;16.70;99.90;;;;;;5064013;28;19966;-71
2022/12/19 10:41:58;;;;;;;;;;;16.70;99.90;;;;;;5064699;28;19962;-65
2022/12/19 10:44:28;;;;;;;;;;;16.60;99.90;;;;;;5064274;28;19912;-66
2022/12/19 10:46:54;;;;;;;;;;;16.60;99.90;;;;;;5064024;28;19916;-69
2022/12/19 10:49:22;;;;;;;;;;;16.60;99.90;;;;;;5062263;28;19978;-70
2022/12/19 10:51:55;;;;;;;;;;;16.60;99.90;;;;;;5064172;28;20290;-65
2022/12/19 10:54:37;;;;;;;;;;;16.50;99.90;;;;;;5063883;28;19956;-69
2022/12/19 10:57:22;;;;;;;;;;;16.50;99.90;;;;;;5063854;28;19924;-64
2022/12/19 10:59:59;;;;;;;;;;;16.50;99.90;;;;;;5064002;28;19920;-66
2022/12/19 11:02:37;;;;;;;;;;;16.50;99.90;;;;;;5064050;28;19912;-65
2022/12/19 11:05:22;;;;;;;;;;;16.50;99.90;;;;;;5061885;28;19916;-70
2022/12/19 11:08:07;;;;;;;;;;;16.40;99.90;;;;;;5062638;28;19979;-69
2022/12/19 11:10:41;;;;;;;;;;;16.40;99.90;;;;;;5064190;28;19912;-69
2022/12/19 11:13:22;;;;;;;;;;;16.40;99.90;;;;;;5063823;28;19913;-71
2022/12/19 11:15:49;;;;;;;;;;;16.40;99.90;;;;;;5064005;28;20457;-68
2022/12/19 11:18:16;;;;;;;;;;;16.40;99.90;;;;;;5061869;28;19925;-68
2022/12/19 11:21:00;;;;;;;;;;;16.40;99.90;;;;;;5063930;28;19920;-66
2022/12/19 11:23:27;;;;;;;;;;;16.40;99.90;;;;;;5064114;28;19951;-71
2022/12/19 11:26:00;;;;;;;;;;;16.40;99.90;;;;;;5064131;28;20023;-70
2022/12/19 11:28:32;;;;;;;;;;;16.30;99.90;;;;;;5064018;28;19913;-66
2022/12/19 11:31:17;;;;;;;;;;;16.40;99.90;;;;;;5063943;28;19912;-71
2022/12/19 11:33:52;;;;;;;;;;;16.30;99.90;;;;;;5059972;28;19923;-70
2022/12/19 11:36:57;;;;;;;;;;;16.30;99.90;;;;;;5063933;28;19923;-64
2022/12/19 11:39:30;;;;;;;;;;;16.30;99.90;;;;;;4984575;28;19970;-71
2022/12/19 11:42:14;;;;;;;;;;;16.30;99.90;;;;;;5001126;28;19956;-65
2022/12/19 11:44:47;;;;;;;;;;;16.30;99.90;;;;;;5040505;28;19919;-66
2022/12/19 11:47:25;;;;;;;;;;;16.30;99.90;;;;;;5060424;28;19956;-66
2022/12/19 11:49:57;;;;;;;;;;;16.30;99.90;;;;;;5023869;28;19914;-65
2022/12/19 11:52:46;;;;;;;;;;;16.30;99.90;;;;;;5024161;28;19913;-62
2022/12/19 11:55:19;;;;;;;;;;;16.30;99.90;;;;;;5018502;28;19917;-70
2022/12/19 11:57:46;;;;;;;;;;;16.30;99.90;;;;;;5037736;28;20021;-65
2022/12/19 12:00:16;;;;;;;;;;;16.20;99.90;;;;;;5043753;28;19917;-71
2022/12/19 12:02:46;;;;;;;;;;;16.20;99.90;;;;;;5050077;28;20035;-66
2022/12/19 12:05:21;;;;;;;;;;;16.20;99.90;;;;;;5063687;28;19917;-65
2022/12/19 12:07:55;;;;;;;;;;;16.10;99.90;;;;;;5063784;28;19912;-71
2022/12/19 12:10:22;;;;;;;;;;;16.10;99.90;;;;;;5063479;28;19990;-68
2022/12/19 12:13:07;;;;;;;;;;;16.10;99.90;;;;;;5061274;28;19920;-64
2022/12/19 12:15:43;;;;;;;;;;;16.20;99.90;;;;;;5063807;28;20563;-68
2022/12/19 12:18:20;;;;;;;;;;;16.20;99.90;;;;;;5064601;28;19971;-67
2022/12/19 12:21:16;;;;;;;;;;;16.20;99.90;;;;;;5067142;28;19916;-66
2022/12/19 12:23:49;;;;;;;;;;;16.20;99.90;;;;;;5053340;28;19919;-69
2022/12/19 12:26:49;;;;;;;;;;;16.30;99.90;;;;;;5067043;28;19995;-70
2022/12/19 12:29:30;;;;;;;;;;;16.30;99.90;;;;;;5033336;28;19912;-64
2022/12/19 12:32:05;;;;;;;;;;;16.30;99.90;;;;;;5065828;28;19920;-64
2022/12/19 12:34:43;;;;;;;;;;;16.30;99.90;;;;;;5067107;28;20380;-66
2022/12/19 12:37:16;;;;;;;;;;;16.30;99.90;;;;;;5066756;28;19924;-65
2022/12/19 12:40:02;;;;;;;;;;;16.30;99.90;;;;;;5066689;28;19920;-63
2022/12/19 12:42:49;;;;;;;;;;;16.30;99.90;;;;;;5071337;28;19909;-63
2022/12/19 12:45:27;;;;;;;;;;;16.40;99.90;;;;;;5075519;28;19909;-63
2022/12/19 12:47:53;;;;;;;;;;;16.30;99.90;;;;;;5074303;28;19908;-64
2022/12/19 12:50:22;;;;;;;;;;;16.30;99.90;;;;;;5075389;28;19919;-62
2022/12/19 12:52:53;;;;;;;;;;;16.30;99.90;;;;;;5075068;28;20390;-63
2022/12/19 12:55:34;;;;;;;;;;;16.30;99.90;;;;;;5075339;28;19919;-66
2022/12/19 12:58:01;;;;;;;;;;;16.30;99.90;;;;;;5074876;28;19921;-66
2022/12/19 13:00:31;;;;;;;;;;;16.40;99.90;;;;;;5075203;28;19949;-69
2022/12/19 13:03:06;;;;;;;;;;;16.40;99.90;;;;;;5073059;28;20282;-71
2022/12/19 13:05:39;;;;;;;;;;;16.40;99.90;;;;;;5075144;28;19909;-63
2022/12/19 13:08:24;;;;;;;;;;;16.40;99.90;;;;;;5074943;28;19908;-63
2022/12/19 13:10:57;;;;;;;;;;;16.40;99.90;;;;;;5074766;28;20359;-66
2022/12/19 13:13:42;;;;;;;;;;;16.40;99.90;;;;;;5074908;28;19913;-64
2022/12/19 13:16:26;;;;;;;;;;;16.40;99.90;;;;;;5073643;28;20371;-65
2022/12/19 13:19:12;;;;;;;;;;;16.40;99.90;;;;;;5074513;28;19935;-71
2022/12/19 13:21:57;;;;;;;;;;;16.40;99.90;;;;;;5074915;28;19908;-68
2022/12/19 13:24:23;;;;;;;;;;;16.30;99.90;;;;;;5074758;28;19912;-69
2022/12/19 13:26:51;;;;;;;;;;;16.40;99.90;;;;;;5074469;28;19960;-71
2022/12/19 13:29:31;;;;;;;;;;;16.40;99.90;;;;;;5074420;28;19977;-67
2022/12/19 13:32:08;;;;;;;;;;;16.30;99.90;;;;;;5073733;28;19913;-69
2022/12/19 13:34:38;;;;;;;;;;;16.30;99.90;;;;;;5074617;28;20271;-70
2022/12/19 13:37:07;;;;;;;;;;;16.30;99.90;;;;;;5074329;28;20282;-62
2022/12/19 13:39:37;;;;;;;;;;;16.30;99.90;;;;;;5074352;28;19923;-63
2022/12/19 13:44:56;;;;;;;;;;;16.30;99.90;;;;;;5074263;28;20011;-63
2022/12/19 13:47:23;;;;;;;;;;;16.30;99.90;;;;;;5073147;28;20259;-63
2022/12/19 13:49:50;;;;;;;;;;;16.20;99.90;;;;;;5074241;28;19958;-64
2022/12/19 13:52:17;;;;;;;;;;;16.20;99.90;;;;;;5074116;28;19943;-62
2022/12/19 13:54:48;;;;;;;;;;;16.20;99.90;;;;;;5074102;28;19962;-63
2022/12/19 13:57:22;;;;;;;;;;;16.10;99.90;;;;;;5073900;28;19920;-64
2022/12/19 13:59:50;;;;;;;;;;;16.10;99.90;;;;;;5073723;28;19917;-63
2022/12/19 14:02:23;;;;;;;;;;;16.10;99.90;;;;;;5073540;28;19908;-63
2022/12/19 14:04:50;;;;;;;;;;;16.10;99.90;;;;;;5073747;28;19935;-63
2022/12/19 14:07:23;;;;;;;;;;;16.00;99.90;;;;;;5073892;28;19915;-62
2022/12/19 14:09:51;;;;;;;;;;;16.00;99.90;;;;;;5073725;28;19912;-63
2022/12/19 14:15:20;;;;;;;;;;;15.90;99.90;;;;;;5072877;28;19920;-63
2022/12/19 14:17:50;;;;;;;;;;;15.80;99.90;;;;;;5072194;28;20025;-62
2022/12/19 14:20:22;;;;;;;;;;;15.80;99.90;;;;;;5073713;28;19916;-63
2022/12/19 14:22:48;;;;;;;;;;;15.70;99.90;;;;;;5073369;28;19912;-64
2022/12/19 14:25:15;;;;;;;;;;;15.70;99.90;;;;;;5073521;28;19944;-64
2022/12/19 14:27:44;;;;;;;;;;;15.70;99.90;;;;;;5073525;28;19940;-71
2022/12/19 14:30:21;;;;;;;;;;;15.70;99.90;;;;;;5072477;28;19912;-72
2022/12/19 14:32:49;;;;;;;;;;;15.70;99.90;;;;;;5072421;28;19912;-70
2022/12/19 14:35:21;;;;;;;;;;;15.70;99.90;;;;;;5073334;28;19970;-72
2022/12/19 14:37:49;;;;;;;;;;;15.70;99.90;;;;;;5073215;28;19909;-72
2022/12/19 14:40:26;;;;;;;;;;;15.80;99.90;;;;;;5072589;28;20436;-72
2022/12/19 14:45:44;;;;;;;;;;;15.80;99.90;;;;;;5072743;28;19935;-73
2022/12/19 14:48:29;;;;;;;;;;;15.80;99.90;;;;;;5073005;28;19919;-72